createdAt,value
2023-04-22T00:03:23.026Z,7.12
2023-04-22T00:08:26.250Z,7.04
2023-04-22T00:13:29.242Z,6.97
2023-04-22T00:18:36.226Z,6.90
2023-04-22T00:23:39.081Z,6.85
2023-04-22T00:28:41.889Z,6.80
2023-04-22T00:33:44.835Z,6.75
2023-04-22T00:38:50.578Z,6.70
2023-04-22T00:43:53.713Z,6.68
2023-04-22T00:48:56.773Z,6.67
2023-04-22T00:54:02.061Z,6.67
2023-04-22T00:59:05.050Z,6.63
2023-04-22T01:04:08.891Z,6.60
2023-04-22T01:09:11.973Z,6.58
2023-04-22T01:14:15.476Z,6.58
2023-04-22T01:19:18.397Z,6.55
2023-04-22T01:24:21.565Z,6.56
2023-04-22T01:29:24.398Z,6.58
2023-04-22T01:34:27.238Z,6.58
2023-04-22T01:39:30.377Z,6.55
2023-04-22T01:44:33.259Z,6.46
2023-04-22T01:49:36.177Z,6.38
2023-04-22T01:54:39.156Z,6.33
2023-04-22T01:59:42.240Z,6.28
2023-04-22T02:04:45.338Z,6.22
2023-04-22T02:09:50.298Z,6.14
2023-04-22T02:14:53.986Z,6.06
2023-04-22T02:19:57.064Z,5.99
2023-04-22T02:25:00.137Z,5.92
2023-04-22T02:30:04.027Z,5.85
2023-04-22T02:35:07.757Z,5.77
2023-04-22T02:40:11.627Z,5.72
2023-04-22T02:45:14.594Z,5.69
2023-04-22T02:50:17.521Z,5.64
2023-04-22T02:55:22.069Z,5.58
2023-04-22T03:00:24.939Z,5.53
2023-04-22T03:05:28.201Z,5.47
2023-04-22T03:10:32.656Z,5.39
2023-04-22T03:15:35.735Z,5.32
2023-04-22T03:20:38.627Z,5.26
2023-04-22T03:25:41.783Z,5.19
2023-04-22T03:30:44.777Z,5.12
2023-04-22T03:35:51.121Z,5.07
2023-04-22T03:40:54.061Z,5.06
2023-04-22T03:45:57.367Z,5.03
2023-04-22T03:51:00.470Z,5.02
2023-04-22T03:56:03.571Z,5.01
2023-04-22T04:01:06.606Z,5.01
2023-04-22T04:06:09.531Z,5.03
2023-04-22T04:11:12.383Z,5.08
2023-04-22T04:16:16.705Z,5.15
2023-04-22T04:21:19.691Z,5.25
2023-04-22T04:26:24.125Z,5.34
2023-04-22T04:31:30.309Z,5.43
2023-04-22T04:36:33.318Z,5.53
2023-04-22T04:41:36.240Z,5.65
2023-04-22T04:46:39.577Z,5.79
2023-04-22T04:51:42.446Z,5.96
2023-04-22T04:56:45.375Z,6.15
2023-04-22T05:01:48.305Z,6.38
2023-04-22T05:06:51.204Z,6.59
2023-04-22T05:11:53.995Z,6.85
2023-04-22T05:16:57.017Z,7.08
2023-04-22T05:22:00.054Z,7.31
2023-04-22T05:27:02.898Z,7.55
2023-04-22T05:32:08.288Z,7.74
2023-04-22T05:37:11.238Z,7.90
2023-04-22T05:42:14.162Z,8.12
2023-04-22T05:47:17.151Z,8.29
2023-04-22T05:52:20.015Z,8.45
2023-04-22T05:57:22.972Z,8.60
2023-04-22T06:02:25.980Z,8.78
2023-04-22T06:07:29.247Z,8.94
2023-04-22T06:12:34.637Z,9.10
2023-04-22T06:17:37.585Z,9.28
2023-04-22T06:22:40.491Z,9.47
2023-04-22T06:27:43.343Z,9.65
2023-04-22T06:32:46.264Z,9.86
2023-04-22T06:37:49.208Z,10.08
2023-04-22T06:42:52.066Z,10.30
2023-04-22T06:47:54.992Z,10.50
2023-04-22T06:52:58.133Z,10.71
2023-04-22T06:58:01.086Z,10.97
2023-04-22T07:03:04.008Z,11.19
2023-04-22T07:08:07.270Z,11.32
2023-04-22T07:13:10.507Z,11.46
2023-04-22T07:18:13.383Z,11.62
2023-04-22T07:23:16.308Z,11.78
2023-04-22T07:28:19.170Z,12.01
2023-04-22T07:33:22.130Z,12.33
2023-04-22T07:38:25.832Z,12.60
2023-04-22T07:43:29.111Z,12.94
2023-04-22T07:48:32.012Z,13.26
2023-04-22T07:53:34.884Z,13.43
2023-04-22T07:58:37.727Z,13.66
2023-04-22T08:03:41.029Z,13.78
2023-04-22T08:08:44.151Z,14.00
2023-04-22T08:13:47.371Z,14.17
2023-04-22T08:18:52.206Z,14.45
2023-04-22T08:23:55.225Z,14.67
2023-04-22T08:28:58.129Z,14.94
2023-04-22T08:34:01.496Z,15.17
2023-04-22T08:39:04.348Z,15.46
2023-04-22T08:44:08.037Z,15.61
2023-04-22T08:49:11.019Z,15.73
2023-04-22T08:54:13.906Z,15.89
2023-04-22T08:59:16.827Z,16.03
2023-04-22T09:04:19.960Z,16.22
2023-04-22T09:09:23.564Z,16.37
2023-04-22T09:14:26.781Z,16.51
2023-04-22T09:19:29.763Z,16.70
2023-04-22T09:24:32.599Z,16.87
2023-04-22T09:29:35.578Z,16.99
2023-04-22T09:34:53.197Z,17.15
2023-04-22T09:39:56.084Z,17.25
2023-04-22T09:45:01.292Z,17.45
2023-04-22T09:50:05.253Z,17.93
2023-04-22T09:55:08.962Z,18.77
2023-04-22T10:00:15.152Z,19.75
2023-04-22T10:05:18.278Z,20.47
2023-04-22T10:10:21.398Z,21.31
2023-04-22T10:15:26.986Z,22.18
2023-04-22T10:20:30.526Z,22.91
2023-04-22T10:25:33.496Z,23.51
2023-04-22T10:30:38.825Z,24.40
2023-04-22T10:35:41.810Z,25.11
2023-04-22T10:41:00.438Z,25.59
2023-04-22T10:46:03.553Z,26.23
2023-04-22T10:51:06.460Z,26.95
2023-04-22T10:56:18.264Z,27.13
2023-04-22T11:01:21.341Z,28.23
2023-04-22T11:06:27.848Z,28.19
2023-04-22T11:11:30.834Z,28.49
2023-04-22T11:16:34.461Z,29.67
2023-04-22T11:21:37.270Z,30.55
2023-04-22T11:26:41.507Z,31.56
2023-04-22T11:31:47.294Z,32.74
2023-04-22T11:36:50.233Z,32.13
2023-04-22T11:41:53.061Z,32.74
2023-04-22T11:46:57.387Z,33.81
2023-04-22T11:52:00.364Z,35.03
2023-04-22T11:57:08.560Z,34.98
2023-04-22T12:02:11.979Z,34.48
2023-04-22T12:07:15.346Z,35.78
2023-04-22T12:12:18.240Z,36.95
2023-04-22T12:17:24.630Z,38.06
2023-04-22T12:22:29.847Z,38.85
2023-04-22T12:27:34.111Z,39.51
2023-04-22T12:32:36.985Z,39.44
2023-04-22T12:37:39.869Z,38.65
2023-04-22T12:42:42.858Z,39.25
2023-04-22T12:47:47.137Z,39.10
2023-04-22T12:52:50.278Z,39.41
2023-04-22T12:57:53.183Z,40.22
2023-04-22T13:02:56.608Z,40.96
2023-04-22T13:08:07.060Z,41.38
2023-04-22T13:13:18.406Z,41.87
2023-04-22T13:18:23.392Z,39.36
2023-04-22T13:23:27.135Z,34.42
2023-04-22T13:28:31.658Z,31.93
2023-04-22T13:33:34.586Z,29.64
2023-04-22T13:38:37.510Z,28.07
2023-04-22T13:43:40.592Z,26.45
2023-04-22T13:48:43.364Z,25.49
2023-04-22T13:53:46.271Z,24.49
2023-04-22T13:58:49.170Z,23.68
2023-04-22T14:03:52.380Z,22.96
2023-04-22T14:08:55.355Z,22.52
2023-04-22T14:13:58.342Z,22.35
2023-04-22T14:19:02.863Z,21.93
2023-04-22T14:24:05.933Z,21.56
2023-04-22T14:29:08.832Z,21.31
2023-04-22T14:34:12.800Z,21.24
2023-04-22T14:39:15.925Z,21.30
2023-04-22T14:44:18.753Z,20.96
2023-04-22T14:49:21.579Z,20.64
2023-04-22T14:54:24.376Z,20.41
2023-04-22T14:59:27.862Z,20.18
2023-04-22T15:04:31.006Z,19.95
2023-04-22T15:09:33.992Z,19.81
2023-04-22T15:14:37.162Z,19.89
2023-04-22T15:19:40.993Z,20.20
2023-04-22T15:24:44.297Z,20.38
2023-04-22T15:29:47.530Z,20.25
2023-04-22T15:34:50.659Z,20.40
2023-04-22T15:39:53.482Z,20.60
2023-04-22T15:44:56.542Z,20.74
2023-04-22T15:50:06.162Z,20.85
2023-04-22T15:55:10.189Z,20.91
2023-04-22T16:00:14.398Z,20.88
2023-04-22T16:05:17.338Z,20.81
2023-04-22T16:10:20.584Z,20.63
2023-04-22T16:15:26.192Z,20.46
2023-04-22T16:20:29.723Z,20.26
2023-04-22T16:25:32.624Z,20.02
2023-04-22T16:30:35.487Z,19.73
2023-04-22T16:35:38.584Z,19.51
2023-04-22T16:40:41.494Z,19.26
2023-04-22T16:45:44.400Z,19.01
2023-04-22T16:50:47.370Z,18.81
2023-04-22T16:55:50.322Z,18.57
2023-04-22T17:00:53.391Z,18.34
2023-04-22T17:05:56.209Z,18.10
2023-04-22T17:10:59.468Z,17.89
2023-04-22T17:16:02.432Z,17.70
2023-04-22T17:21:05.396Z,17.49
2023-04-22T17:26:08.699Z,17.28
2023-04-22T17:31:12.269Z,17.04
2023-04-22T17:36:15.469Z,16.82
2023-04-22T17:41:18.673Z,16.61
2023-04-22T17:46:21.750Z,16.37
2023-04-22T17:51:24.652Z,16.12
2023-04-22T17:56:27.637Z,15.86
2023-04-22T18:01:30.595Z,15.63
2023-04-22T18:06:33.544Z,15.38
2023-04-22T18:11:36.376Z,15.12
2023-04-22T18:16:39.334Z,14.88
2023-04-22T18:21:52.975Z,14.65
2023-04-22T18:27:02.879Z,14.39
2023-04-22T18:32:05.804Z,14.10
2023-04-22T18:37:08.785Z,13.87
2023-04-22T18:42:11.660Z,13.66
2023-04-22T18:47:14.677Z,13.46
2023-04-22T18:52:17.966Z,13.26
2023-04-22T18:57:21.201Z,13.06
2023-04-22T19:02:24.189Z,12.84
2023-04-22T19:07:27.074Z,12.64
2023-04-22T19:12:29.936Z,12.48
2023-04-22T19:17:33.753Z,12.34
2023-04-22T19:22:36.696Z,12.20
2023-04-22T19:27:39.701Z,12.03
2023-04-22T19:32:42.678Z,11.88
2023-04-22T19:37:45.869Z,11.74
2023-04-22T19:42:48.822Z,11.60
2023-04-22T19:47:52.179Z,11.46
2023-04-22T19:53:03.629Z,11.32
2023-04-22T19:58:06.828Z,11.18
2023-04-22T20:03:10.300Z,11.05
2023-04-22T20:08:13.351Z,10.92
2023-04-22T20:13:17.037Z,10.84
2023-04-22T20:18:20.191Z,10.76
2023-04-22T20:23:24.542Z,10.66
2023-04-22T20:28:41.718Z,10.54
2023-04-22T20:33:44.868Z,10.40
2023-04-22T20:38:49.099Z,10.28
2023-04-22T20:43:52.698Z,10.16
2023-04-22T20:48:55.531Z,10.04
2023-04-22T20:53:58.519Z,9.93
2023-04-22T20:59:01.753Z,9.84
2023-04-22T21:04:05.011Z,9.79
2023-04-22T21:09:09.061Z,9.72
2023-04-22T21:14:12.009Z,9.64
2023-04-22T21:19:15.076Z,9.56
2023-04-22T21:24:17.900Z,9.48
2023-04-22T21:29:21.256Z,9.39
2023-04-22T21:34:24.186Z,9.30
2023-04-22T21:39:27.170Z,9.22
2023-04-22T21:44:30.054Z,9.13
2023-04-22T21:49:32.890Z,9.04
2023-04-22T21:54:35.784Z,8.98
2023-04-22T21:59:38.572Z,8.88
2023-04-22T22:04:41.847Z,8.80
2023-04-22T22:09:45.417Z,8.71
2023-04-22T22:14:48.244Z,8.66
2023-04-22T22:19:51.516Z,8.58
2023-04-22T22:24:54.518Z,8.51
2023-04-22T22:29:57.400Z,8.42
2023-04-22T22:35:00.530Z,8.34
2023-04-22T22:40:04.462Z,8.23
2023-04-22T22:45:08.344Z,8.15
2023-04-22T22:50:11.622Z,8.06
2023-04-22T22:55:14.480Z,7.98
2023-04-22T23:00:18.563Z,7.89
2023-04-22T23:05:21.737Z,7.82
2023-04-22T23:10:24.636Z,7.75
2023-04-22T23:15:27.556Z,7.67
2023-04-22T23:20:30.835Z,7.61
2023-04-22T23:25:34.244Z,7.54
2023-04-22T23:30:37.530Z,7.48
2023-04-22T23:35:41.458Z,7.41
2023-04-22T23:40:44.371Z,7.35
2023-04-22T23:45:47.166Z,7.29
2023-04-22T23:50:50.115Z,7.24
2023-04-22T23:55:53.400Z,7.19
